EDT,Max TemperatureF,Mean TemperatureF,Min TemperatureF,Max Dew PointF,MeanDew PointF,Min DewpointF,Max Humidity, Mean Humidity, Min Humidity, Max Sea Level PressureIn, Mean Sea Level PressureIn, Min Sea Level PressureIn, Max VisibilityMiles, Mean VisibilityMiles, Min VisibilityMiles, Max Wind SpeedMPH, Mean Wind SpeedMPH, Max Gust SpeedMPH,PrecipitationIn, CloudCover, Events, WindDirDegrees
2012-8-1,80,70,59,63,59,52,94,71,37,30.07,30.04,30.00,10,8,0,9,2,,0.20,3,Fog-Rain,320
2012-8-2,82,70,59,63,57,43,94,64,25,30.09,30.05,30.02,10,9,0,10,4,,0.00,2,Fog-Rain,315
2012-8-3,77,68,60,68,64,57,94,84,64,30.20,30.13,30.06,10,7,0,8,1,,0.00,4,Fog-Rain,144
2012-8-4,77,72,66,68,63,59,94,80,61,30.31,30.25,30.18,10,8,2,8,2,,0.00,6,Rain,156
2012-8-5,77,70,64,68,64,61,94,86,65,30.34,30.29,30.23,10,8,1,9,2,,0.75,6,Rain,167
2012-8-6,73,68,62,66,63,61,100,87,69,30.26,30.22,30.17,10,7,0,12,1,,0.11,7,Fog-Rain,320
2012-8-7,75,68,62,68,63,59,100,84,61,30.17,30.14,30.10,10,7,0,5,1,,0.00,5,Fog,57
2012-8-8,80,71,62,64,61,52,94,70,37,30.16,30.13,30.10,10,9,2,9,3,,0.00,3,,336
2012-8-9,77,68,60,68,62,59,100,86,65,30.14,30.08,29.97,10,6,0,7,1,,0.02,5,Fog-Rain,158
2012-8-10,73,66,60,64,61,59,100,81,61,29.98,29.94,29.91,10,8,0,10,2,,0.00,7,Fog-Rain,262
2012-8-11,71,66,60,63,57,52,94,75,56,30.09,30.02,29.96,10,9,0,12,3,,0.03,5,Fog-Rain,318
2012-8-12,75,64,53,54,50,39,94,59,29,30.17,30.12,30.07,10,10,10,10,2,,0.00,2,,322
2012-8-13,73,63,53,59,56,50,100,73,50,30.18,30.13,30.07,10,10,0,7,1,,0.00,3,Fog-Rain,157
2012-8-14,77,66,55,61,58,54,94,74,53,30.11,30.05,30.01,10,8,0,9,2,,0.00,4,Fog-Rain,281
2012-8-15,71,66,60,63,57,52,94,75,53,30.12,30.06,30.02,10,10,4,15,3,17,0.01,4,Rain,300
2012-8-16,75,65,55,57,51,45,82,59,36,30.17,30.14,30.08,10,10,10,6,2,,0.00,2,,346
2012-8-17,69,62,55,59,55,52,94,72,60,30.13,30.05,30.00,10,10,2,14,4,21,0.00,3,Rain,281
2012-8-18,71,66,60,59,57,54,94,77,53,30.06,30.02,29.98,10,10,5,7,1,,0.00,6,,45
2012-8-19,69,64,59,61,58,54,94,85,60,30.02,29.99,29.95,10,6,0,9,1,,0.08,7,Fog-Rain,141
2012-8-20,73,66,59,57,52,43,94,69,35,30.10,30.01,29.96,10,7,0,14,3,,0.00,4,Fog-Rain,306
2012-8-21,71,60,50,57,52,46,94,71,43,30.20,30.14,30.10,10,9,0,6,0,,0.00,4,Fog,130
2012-8-22,71,62,53,59,55,52,100,78,53,30.25,30.21,30.17,10,8,0,7,1,,0.00,5,Fog-Rain,122
2012-8-23,73,62,51,61,56,50,100,80,50,30.27,30.25,30.23,10,7,0,7,1,,0.00,4,Fog-Rain,134
2012-8-24,71,62,53,63,56,52,100,80,56,30.29,30.25,30.22,10,6,0,9,1,,0.00,5,Fog-Rain,123
2012-8-25,75,62,50,57,54,48,94,76,41,30.28,30.25,30.22,10,7,0,12,1,16,0.00,3,Fog,80
2012-8-26,77,64,51,61,55,46,94,70,34,30.29,30.25,30.21,10,8,0,8,2,,0.00,3,Fog,347
2012-8-27,78,66,53,61,57,52,94,75,39,30.29,30.23,30.17,10,8,0,8,1,,0.00,2,Fog,134
2012-8-28,80,66,53,64,58,50,94,73,34,30.18,30.13,30.07,10,9,1,8,2,,0.00,3,Rain,6
2012-8-29,78,70,62,63,59,54,94,71,42,30.15,30.12,30.08,10,9,2,6,1,,0.00,5,,106
2012-8-30,78,69,60,68,63,59,100,82,61,30.29,30.21,30.14,10,8,0,8,1,,0.00,4,Fog-Rain,144
2012-8-31,84,72,60,64,61,55,94,70,37,30.37,30.31,30.27,10,8,0,12,3,,0.00,2,Fog,295